Delphinus — IROA — position and weather

sailwx.info

Track history (hours):
 
Tides and Currents Weather Stations Pressure Air Temp Water Temp Dewpoint Dewpoint Depression Visibility Wind Speed Wind Dir Waves Ship Positions

Delphinus

Last reported at 2017-May-24 14:08 UTC. Time now 2017-May-24 17:42 UTC.
Position N 40°34' E 008°19'.

Length 25 m.

Type: Passenger vessel. MMSI: 247121500.

Date/timePositionNaut miles runAvg speedWind from/ knotsBaromVisibWave heightAir tempDewpointWater temp
2017-May-24 14:08N 40°34' E 008°19'7 8.2
2017-May-24 13:19N 40°34' E 008°10'0 0.0
2017-May-24 13:00N 40°34' E 008°10'3 5.2
2017-May-24 12:24N 40°34' E 008°14'4 7.5
2017-May-24 11:53N 40°34' E 008°19'0 0.0
2017-May-24 11:21N 40°34' E 008°19'0 0.0
2017-May-24 10:58N 40°34' E 008°19'1 1.7
2017-May-24 10:21N 40°34' E 008°17'513.6
2017-May-24 09:58N 40°34' E 008°11'6 0.1
2017-May-22 15:33N 40°34' E 008°19'1 9.8
2017-May-22 15:29N 40°34' E 008°18'6 9.9
2017-May-22 14:51N 40°34' E 008°10'0 0.0
2017-May-22 13:58N 40°34' E 008°10'2 4.3
2017-May-22 13:30N 40°34' E 008°12'5 9.1
2017-May-22 12:57N 40°34' E 008°19'0 0.0
2017-May-22 12:27N 40°34' E 008°19'0 0.0
2017-May-22 11:56N 40°34' E 008°19'610.7
2017-May-22 11:23N 40°34' E 008°11'1 3.0
2017-May-22 11:00N 40°34' E 008°10'0 0.1
2017-May-22 10:27N 40°34' E 008°10'0 0.1
2017-May-22 09:58N 40°34' E 008°10'2 4.3
2017-May-22 09:28N 40°34' E 008°12'510.1
2017-May-22 09:00N 40°34' E 008°19'0 0.0
2017-May-22 08:23N 40°34' E 008°19'0 0.0
2017-May-22 07:52N 40°34' E 008°19'0 0.0
2017-May-22 07:28N 40°34' E 008°19'0 0.0
2017-May-21 15:57N 40°34' E 008°19'511.3
2017-May-21 15:30N 40°34' E 008°12'2 3.8
2017-May-21 14:59N 40°34' E 008°10'0 0.0
2017-May-21 14:29N 40°34' E 008°10'3 2.8
2017-May-21 13:30N 40°34' E 008°13'4 8.2
2017-May-21 12:59N 40°34' E 008°19'0 0.0
2017-May-21 12:29N 40°34' E 008°19'0 0.0
2017-May-21 11:57N 40°34' E 008°19'0 0.0
2017-May-21 11:27N 40°34' E 008°19'0 0.0
2017-May-21 10:57N 40°34' E 008°19'0 0.0
2017-May-21 10:28N 40°34' E 008°19'511.2
2017-May-21 09:59N 40°34' E 008°12'2 3.2
2017-May-21 09:29N 40°34' E 008°10'0 0.1
2017-May-21 08:58N 40°34' E 008°10'2 5.1
2017-May-21 08:30N 40°34' E 008°13'5 9.2
2017-May-21 08:00N 40°34' E 008°19'0 0.0
2017-May-21 07:30N 40°34' E 008°19'0 0.0
2017-May-20 14:19N 40°34' E 008°19'7 7.9
2017-May-20 13:26N 40°35' E 008°10'0 0.0
2017-May-20 12:57N 40°35' E 008°10'2 5.1
2017-May-20 12:29N 40°34' E 008°13'5 9.6
2017-May-20 12:00N 40°34' E 008°19'0 0.0
2017-May-20 11:30N 40°34' E 008°19'0 0.0
2017-May-20 11:00N 40°34' E 008°19'0 0.0
2017-May-20 10:29N 40°34' E 008°19'4 8.4
2017-May-20 10:00N 40°34' E 008°13'3 4.6
2017-May-20 09:23N 40°35' E 008°10'0 0.4
2017-May-20 08:55N 40°34' E 008°10'3 7.4
2017-May-20 08:26N 40°34' E 008°14'1 0.1
2017-May-19 13:59N 40°35' E 008°16'5 5.7
2017-May-19 13:09N 40°35' E 008°10'1 2.2
2017-May-19 12:51N 40°34' E 008°10'2 4.8
2017-May-19 12:29N 40°34' E 008°12'510.2
2017-May-19 12:00N 40°34' E 008°19'0 0.0
2017-May-19 11:28N 40°34' E 008°19'0 0.0
2017-May-19 10:59N 40°34' E 008°19'4 7.6
2017-May-19 10:29N 40°34' E 008°14'4 7.0
2017-May-19 09:59N 40°34' E 008°09'0 0.9
2017-May-19 09:28N 40°34' E 008°10'0 0.1
2017-May-19 09:00N 40°34' E 008°10'3 5.5
2017-May-19 08:29N 40°34' E 008°13'4 8.4
2017-May-19 07:59N 40°34' E 008°19'0 0.0
2017-May-19 07:27N 40°34' E 008°19'0 0.3
2017-May-19 06:54N 40°34' E 008°19'7 0.4
2017-May-18 13:59N 40°34' E 008°10'0 0.8
2017-May-18 13:28N 40°34' E 008°10'0 0.0
2017-May-18 12:58N 40°34' E 008°10'1 1.9
2017-May-18 12:29N 40°34' E 008°11'610.6
2017-May-18 11:54N 40°34' E 008°19'0 0.0
2017-May-18 11:26N 40°34' E 008°19'0 0.0
2017-May-18 11:00N 40°34' E 008°19'0 0.0
2017-May-18 10:23N 40°34' E 008°19'512.6
2017-May-18 09:57N 40°34' E 008°12'2 3.4
2017-May-18 09:28N 40°34' E 008°10'0 0.0
2017-May-18 08:50N 40°34' E 008°10'612.9
2017-May-18 08:24N 40°34' E 008°17'1 3.7
2017-May-18 08:00N 40°34' E 008°19'0 0.0
2017-May-18 07:29N 40°34' E 008°19'5 0.3
2017-May-17 13:57N 40°34' E 008°12'2 4.6
2017-May-17 13:31N 40°34' E 008°10'0 0.0
2017-May-17 12:55N 40°34' E 008°10'2 3.6
2017-May-17 12:28N 40°34' E 008°12'510.7
2017-May-17 11:58N 40°34' E 008°19'0 0.0
2017-May-17 11:21N 40°34' E 008°19'0 0.0
2017-May-17 10:54N 40°34' E 008°19'6 8.6
2017-May-17 10:15N 40°34' E 008°12'2 5.5
2017-May-17 09:58N 40°34' E 008°10'0 0.7
2017-May-17 09:30N 40°34' E 008°10'0 0.0
2017-May-17 09:00N 40°34' E 008°10'2 3.6
2017-May-17 08:28N 40°34' E 008°12'3 0.1
2017-May-16 14:17N 40°34' E 008°16'5 5.4
2017-May-16 13:26N 40°34' E 008°10'0 0.1
2017-May-16 12:52N 40°34' E 008°10'3 5.2
2017-May-16 12:21N 40°34' E 008°13'411.9
2017-May-16 11:59N 40°34' E 008°19'0 0.1
2017-May-16 11:30N 40°34' E 008°19'0 0.0
2017-May-16 10:49N 40°34' E 008°19'0 0.0
2017-May-16 10:28N 40°34' E 008°19'510.7
2017-May-16 09:59N 40°34' E 008°12'  
Track history (hours):
 
Tides and Currents Weather Stations Pressure Air Temp Water Temp Dewpoint Dewpoint Depression Visibility Wind Speed Wind Dir Waves Ship Positions

Delphinus

Last reported at 2017-May-24 14:08 UTC. Time now 2017-May-24 17:42 UTC.
Position N 40°34' E 008°19'.

Length 25 m.

Type: Passenger vessel. MMSI: 247121500.

Date/timePositionNaut miles runAvg speedWind from/ knotsBaromVisibWave heightAir tempDewpointWater temp
2017-May-24 14:08N 40°34' E 008°19'7 8.2
2017-May-24 13:19N 40°34' E 008°10'0 0.0
2017-May-24 13:00N 40°34' E 008°10'3 5.2
2017-May-24 12:24N 40°34' E 008°14'4 7.5
2017-May-24 11:53N 40°34' E 008°19'0 0.0
2017-May-24 11:21N 40°34' E 008°19'0 0.0
2017-May-24 10:58N 40°34' E 008°19'1 1.7
2017-May-24 10:21N 40°34' E 008°17'513.6
2017-May-24 09:58N 40°34' E 008°11'6 0.1
2017-May-22 15:33N 40°34' E 008°19'1 9.8
2017-May-22 15:29N 40°34' E 008°18'6 9.9
2017-May-22 14:51N 40°34' E 008°10'0 0.0
2017-May-22 13:58N 40°34' E 008°10'2 4.3
2017-May-22 13:30N 40°34' E 008°12'5 9.1
2017-May-22 12:57N 40°34' E 008°19'0 0.0
2017-May-22 12:27N 40°34' E 008°19'0 0.0
2017-May-22 11:56N 40°34' E 008°19'610.7
2017-May-22 11:23N 40°34' E 008°11'1 3.0
2017-May-22 11:00N 40°34' E 008°10'0 0.1
2017-May-22 10:27N 40°34' E 008°10'0 0.1
2017-May-22 09:58N 40°34' E 008°10'2 4.3
2017-May-22 09:28N 40°34' E 008°12'510.1
2017-May-22 09:00N 40°34' E 008°19'0 0.0
2017-May-22 08:23N 40°34' E 008°19'0 0.0
2017-May-22 07:52N 40°34' E 008°19'0 0.0
2017-May-22 07:28N 40°34' E 008°19'0 0.0
2017-May-21 15:57N 40°34' E 008°19'511.3
2017-May-21 15:30N 40°34' E 008°12'2 3.8
2017-May-21 14:59N 40°34' E 008°10'0 0.0
2017-May-21 14:29N 40°34' E 008°10'3 2.8
2017-May-21 13:30N 40°34' E 008°13'4 8.2
2017-May-21 12:59N 40°34' E 008°19'0 0.0
2017-May-21 12:29N 40°34' E 008°19'0 0.0
2017-May-21 11:57N 40°34' E 008°19'0 0.0
2017-May-21 11:27N 40°34' E 008°19'0 0.0
2017-May-21 10:57N 40°34' E 008°19'0 0.0
2017-May-21 10:28N 40°34' E 008°19'511.2
2017-May-21 09:59N 40°34' E 008°12'2 3.2
2017-May-21 09:29N 40°34' E 008°10'0 0.1
2017-May-21 08:58N 40°34' E 008°10'2 5.1
2017-May-21 08:30N 40°34' E 008°13'5 9.2
2017-May-21 08:00N 40°34' E 008°19'0 0.0
2017-May-21 07:30N 40°34' E 008°19'0 0.0
2017-May-20 14:19N 40°34' E 008°19'7 7.9
2017-May-20 13:26N 40°35' E 008°10'0 0.0
2017-May-20 12:57N 40°35' E 008°10'2 5.1
2017-May-20 12:29N 40°34' E 008°13'5 9.6
2017-May-20 12:00N 40°34' E 008°19'0 0.0
2017-May-20 11:30N 40°34' E 008°19'0 0.0
2017-May-20 11:00N 40°34' E 008°19'0 0.0
2017-May-20 10:29N 40°34' E 008°19'4 8.4
2017-May-20 10:00N 40°34' E 008°13'3 4.6
2017-May-20 09:23N 40°35' E 008°10'0 0.4
2017-May-20 08:55N 40°34' E 008°10'3 7.4
2017-May-20 08:26N 40°34' E 008°14'1 0.1
2017-May-19 13:59N 40°35' E 008°16'5 5.7
2017-May-19 13:09N 40°35' E 008°10'1 2.2
2017-May-19 12:51N 40°34' E 008°10'2 4.8
2017-May-19 12:29N 40°34' E 008°12'510.2
2017-May-19 12:00N 40°34' E 008°19'0 0.0
2017-May-19 11:28N 40°34' E 008°19'0 0.0
2017-May-19 10:59N 40°34' E 008°19'4 7.6
2017-May-19 10:29N 40°34' E 008°14'4 7.0
2017-May-19 09:59N 40°34' E 008°09'0 0.9
2017-May-19 09:28N 40°34' E 008°10'0 0.1
2017-May-19 09:00N 40°34' E 008°10'3 5.5
2017-May-19 08:29N 40°34' E 008°13'4 8.4
2017-May-19 07:59N 40°34' E 008°19'0 0.0
2017-May-19 07:27N 40°34' E 008°19'0 0.3
2017-May-19 06:54N 40°34' E 008°19'7 0.4
2017-May-18 13:59N 40°34' E 008°10'0 0.8
2017-May-18 13:28N 40°34' E 008°10'0 0.0
2017-May-18 12:58N 40°34' E 008°10'1 1.9
2017-May-18 12:29N 40°34' E 008°11'610.6
2017-May-18 11:54N 40°34' E 008°19'0 0.0
2017-May-18 11:26N 40°34' E 008°19'0 0.0
2017-May-18 11:00N 40°34' E 008°19'0 0.0
2017-May-18 10:23N 40°34' E 008°19'512.6
2017-May-18 09:57N 40°34' E 008°12'2 3.4
2017-May-18 09:28N 40°34' E 008°10'0 0.0
2017-May-18 08:50N 40°34' E 008°10'612.9
2017-May-18 08:24N 40°34' E 008°17'1 3.7
2017-May-18 08:00N 40°34' E 008°19'0 0.0
2017-May-18 07:29N 40°34' E 008°19'5 0.3
2017-May-17 13:57N 40°34' E 008°12'2 4.6
2017-May-17 13:31N 40°34' E 008°10'0 0.0
2017-May-17 12:55N 40°34' E 008°10'2 3.6
2017-May-17 12:28N 40°34' E 008°12'510.7
2017-May-17 11:58N 40°34' E 008°19'0 0.0
2017-May-17 11:21N 40°34' E 008°19'0 0.0
2017-May-17 10:54N 40°34' E 008°19'6 8.6
2017-May-17 10:15N 40°34' E 008°12'2 5.5
2017-May-17 09:58N 40°34' E 008°10'0 0.7
2017-May-17 09:30N 40°34' E 008°10'0 0.0
2017-May-17 09:00N 40°34' E 008°10'2 3.6
2017-May-17 08:28N 40°34' E 008°12'3 0.1
2017-May-16 14:17N 40°34' E 008°16'5 5.4
2017-May-16 13:26N 40°34' E 008°10'0 0.1
2017-May-16 12:52N 40°34' E 008°10'3 5.2
2017-May-16 12:21N 40°34' E 008°13'411.9
2017-May-16 11:59N 40°34' E 008°19'0 0.1
2017-May-16 11:30N 40°34' E 008°19'0 0.0
2017-May-16 10:49N 40°34' E 008°19'0 0.0
2017-May-16 10:28N 40°34' E 008°19'510.7
2017-May-16 09:59N 40°34' E 008°12'  

Dump ship's entire track history